createdAt,value
2018-08-16T00:01:18.394Z,6.13
2018-08-16T00:06:22.433Z,6.30
2018-08-16T00:11:26.471Z,5.93
2018-08-16T00:16:30.506Z,6.07
2018-08-16T00:21:34.546Z,6.00
2018-08-16T00:26:38.645Z,6.22
2018-08-16T00:31:42.450Z,6.87
2018-08-16T00:36:53.085Z,7.95
2018-08-16T00:41:57.129Z,5.60
2018-08-16T00:47:01.197Z,5.83
2018-08-16T00:52:05.028Z,5.80
2018-08-16T00:57:09.960Z,8.27
2018-08-16T01:02:13.987Z,6.30
2018-08-16T01:07:18.041Z,6.90
2018-08-16T01:12:22.071Z,7.87
2018-08-16T01:17:25.864Z,6.40
2018-08-16T01:22:29.910Z,6.03
2018-08-16T01:27:34.303Z,7.07
2018-08-16T01:32:38.350Z,7.07
2018-08-16T01:37:42.510Z,6.00
2018-08-16T01:42:46.563Z,6.33
2018-08-16T01:47:50.617Z,6.60
2018-08-16T01:52:56.717Z,6.90
2018-08-16T01:58:00.520Z,6.60
2018-08-16T02:03:04.551Z,6.33
2018-08-16T02:08:08.353Z,7.07
2018-08-16T02:13:12.268Z,6.65
2018-08-16T02:18:16.326Z,8.38
2018-08-16T02:23:20.365Z,6.47
2018-08-16T02:28:24.441Z,6.50
2018-08-16T02:33:28.477Z,6.70
2018-08-16T02:38:32.485Z,7.13
2018-08-16T02:43:36.512Z,6.43
2018-08-16T02:48:40.693Z,6.37
2018-08-16T02:53:44.725Z,6.40
2018-08-16T02:58:49.746Z,7.90
2018-08-16T03:03:53.779Z,6.83
2018-08-16T03:08:57.821Z,7.03
2018-08-16T03:14:01.716Z,6.67
2018-08-16T03:19:05.905Z,6.33
2018-08-16T03:24:09.985Z,6.77
2018-08-16T03:29:14.041Z,8.10
2018-08-16T03:34:17.946Z,7.23
2018-08-16T03:39:21.974Z,6.90
2018-08-16T03:44:26.014Z,7.70
2018-08-16T03:49:30.104Z,6.67
2018-08-16T03:54:33.921Z,6.63
2018-08-16T03:59:37.769Z,7.50
2018-08-16T04:04:41.789Z,6.70
2018-08-16T04:09:45.841Z,6.90
2018-08-16T04:14:49.886Z,7.40
2018-08-16T04:19:53.926Z,7.70
2018-08-16T04:24:58.047Z,7.23
2018-08-16T04:30:02.087Z,7.10
2018-08-16T04:35:06.271Z,7.50
2018-08-16T04:40:10.422Z,7.43
2018-08-16T04:45:14.458Z,6.73
2018-08-16T04:50:18.274Z,8.27
2018-08-16T04:55:22.293Z,7.73
2018-08-16T05:00:26.098Z,7.27
2018-08-16T05:05:30.165Z,8.23
2018-08-16T05:10:33.950Z,8.23
2018-08-16T05:15:37.826Z,8.67
2018-08-16T05:20:41.641Z,8.13
2018-08-16T05:25:45.830Z,9.18
2018-08-16T05:30:49.638Z,9.37
2018-08-16T05:35:53.674Z,8.13
2018-08-16T05:40:57.749Z,10.13
2018-08-16T05:46:01.824Z,7.53
2018-08-16T05:51:06.031Z,7.83
2018-08-16T05:56:10.088Z,7.37
2018-08-16T06:01:14.020Z,7.30
2018-08-16T06:06:17.857Z,8.10
2018-08-16T06:11:21.749Z,7.07
2018-08-16T06:16:26.011Z,6.65
2018-08-16T06:21:29.956Z,6.90
2018-08-16T06:26:34.071Z,7.27
2018-08-16T06:31:38.158Z,6.33
2018-08-16T06:36:42.210Z,6.70
2018-08-16T06:41:46.213Z,7.10
2018-08-16T06:46:50.087Z,6.40
2018-08-16T06:51:54.026Z,6.30
2018-08-16T06:56:58.231Z,6.50
2018-08-16T07:02:02.374Z,7.50
2018-08-16T07:07:06.162Z,6.83
2018-08-16T07:12:10.438Z,6.40
2018-08-16T07:17:14.521Z,6.27
2018-08-16T07:22:18.730Z,6.65
2018-08-16T07:27:22.823Z,8.57
2018-08-16T07:32:26.692Z,6.37
2018-08-16T07:37:30.530Z,7.57
2018-08-16T07:42:34.654Z,6.10
2018-08-16T07:47:39.040Z,6.20
2018-08-16T07:52:43.159Z,6.27
2018-08-16T07:57:47.263Z,5.20
2018-08-16T08:02:51.383Z,4.40
2018-08-16T08:07:55.242Z,3.87
2018-08-16T08:12:59.178Z,3.83
2018-08-16T08:18:03.315Z,5.17
2018-08-16T08:23:07.271Z,3.45
2018-08-16T08:28:11.383Z,3.70
2018-08-16T08:33:15.246Z,4.55
2018-08-16T08:38:19.300Z,3.58
2018-08-16T08:43:34.406Z,3.75
2018-08-16T08:48:38.474Z,3.52
2018-08-16T08:54:34.907Z,3.92
2018-08-16T08:59:39.048Z,3.62
2018-08-16T09:04:43.123Z,5.22
2018-08-16T09:11:31.023Z,4.55
2018-08-16T09:16:37.186Z,4.75
2018-08-16T09:21:41.218Z,5.22
2018-08-16T09:26:45.874Z,5.37
2018-08-16T09:33:09.867Z,5.47
2018-08-16T09:38:14.006Z,5.03
2018-08-16T09:43:18.070Z,5.55
2018-08-16T09:48:43.466Z,5.03
2018-08-16T09:53:47.546Z,6.15
2018-08-16T09:58:51.589Z,4.50
2018-08-16T10:03:55.606Z,4.23
2018-08-16T10:08:59.401Z,4.30
2018-08-16T10:14:03.464Z,4.03
2018-08-16T10:19:07.531Z,3.50
2018-08-16T10:24:11.606Z,4.10
2018-08-16T10:29:15.621Z,4.93
2018-08-16T10:34:19.551Z,4.87
2018-08-16T10:39:23.615Z,5.07
2018-08-16T10:44:27.782Z,4.77
2018-08-16T10:49:31.594Z,3.87
2018-08-16T10:54:35.670Z,4.13
2018-08-16T10:59:39.744Z,4.50
2018-08-16T11:04:43.823Z,4.60
2018-08-16T11:09:47.664Z,4.83
2018-08-16T11:14:51.726Z,6.80
2018-08-16T11:19:55.791Z,4.77
2018-08-16T11:24:59.880Z,4.33
2018-08-16T11:30:04.467Z,7.00
2018-08-16T11:35:08.529Z,4.33
2018-08-16T11:40:12.683Z,6.47
2018-08-16T11:45:16.936Z,5.13
2018-08-16T11:50:21.049Z,5.23
2018-08-16T11:55:25.150Z,6.43
2018-08-16T12:00:29.225Z,9.37
2018-08-16T12:05:33.343Z,5.20
2018-08-16T12:10:37.416Z,6.47
2018-08-16T12:15:41.475Z,7.87
2018-08-16T12:20:45.570Z,7.97
2018-08-16T12:25:49.643Z,7.67
2018-08-16T12:30:53.717Z,5.93
2018-08-16T12:35:57.800Z,10.47
2018-08-16T12:41:02.264Z,6.63
2018-08-16T12:46:06.308Z,7.70
2018-08-16T12:51:10.374Z,8.80
2018-08-16T12:56:14.294Z,7.33
2018-08-16T13:01:18.385Z,5.70
2018-08-16T13:06:22.484Z,5.87
2018-08-16T13:11:26.334Z,6.53
2018-08-16T13:16:30.429Z,5.53
2018-08-16T13:21:34.583Z,5.60
2018-08-16T13:26:38.639Z,9.60
2018-08-16T13:31:42.719Z,7.63
2018-08-16T13:36:46.775Z,6.70
2018-08-16T13:41:50.885Z,6.63
2018-08-16T13:46:54.953Z,6.53
2018-08-16T13:51:58.793Z,6.17
2018-08-16T13:57:03.559Z,5.60
2018-08-16T14:02:07.725Z,9.07
2018-08-16T14:07:11.831Z,5.00
2018-08-16T14:12:15.806Z,7.53
2018-08-16T14:17:19.855Z,9.80
2018-08-16T14:22:23.730Z,6.20
2018-08-16T14:27:27.810Z,5.60
2018-08-16T14:32:31.992Z,5.30
2018-08-16T14:37:35.958Z,5.45
2018-08-16T14:42:40.047Z,5.03
2018-08-16T14:47:43.895Z,6.67
2018-08-16T14:52:47.747Z,5.08
2018-08-16T14:57:51.849Z,5.47
2018-08-16T15:02:56.055Z,8.28
2018-08-16T15:07:59.887Z,6.67
2018-08-16T15:13:03.974Z,6.07
2018-08-16T15:18:07.894Z,5.33
2018-08-16T15:23:12.000Z,5.57
2018-08-16T15:28:15.800Z,4.80
2018-08-16T15:33:19.866Z,6.50
2018-08-16T15:38:23.956Z,6.00
2018-08-16T15:43:27.813Z,5.30
2018-08-16T15:48:31.871Z,4.73
2018-08-16T15:53:35.937Z,5.67
2018-08-16T15:58:40.002Z,7.73
2018-08-16T16:03:44.078Z,5.65
2018-08-16T16:08:48.175Z,5.53
2018-08-16T16:13:52.097Z,6.60
2018-08-16T16:18:55.949Z,5.08
2018-08-16T16:24:00.051Z,5.20
2018-08-16T16:29:04.099Z,5.35
2018-08-16T16:34:08.691Z,4.97
2018-08-16T16:39:13.343Z,6.10
2018-08-16T16:44:17.292Z,6.03
2018-08-16T16:49:23.549Z,6.50
2018-08-16T16:54:27.359Z,7.72
2018-08-16T16:59:31.398Z,6.13
2018-08-16T17:04:35.433Z,6.60
2018-08-16T17:09:39.470Z,6.97
2018-08-16T17:14:43.286Z,7.27
2018-08-16T17:19:47.337Z,7.50
2018-08-16T17:24:51.369Z,6.70
2018-08-16T17:29:55.445Z,5.42
2018-08-16T17:34:59.298Z,8.00
2018-08-16T17:40:03.484Z,7.43
2018-08-16T17:45:07.428Z,6.40
2018-08-16T17:50:11.581Z,6.60
2018-08-16T17:55:15.434Z,8.10
2018-08-16T18:00:19.474Z,7.93
2018-08-16T18:05:23.292Z,10.25
2018-08-16T18:10:27.430Z,6.63
2018-08-16T18:15:31.478Z,7.13
2018-08-16T18:20:35.513Z,7.10
2018-08-16T18:25:39.546Z,7.70
2018-08-16T18:30:43.629Z,8.23
2018-08-16T18:35:47.670Z,8.30
2018-08-16T18:40:51.735Z,11.83
2018-08-16T18:45:55.597Z,8.50
2018-08-16T18:50:59.409Z,8.77
2018-08-16T18:56:03.442Z,10.87
2018-08-16T19:01:07.333Z,8.30
2018-08-16T19:06:11.366Z,9.47
2018-08-16T19:11:15.408Z,7.87
2018-08-16T19:16:19.465Z,11.73
2018-08-16T19:21:23.506Z,8.40
2018-08-16T19:26:27.327Z,9.20
2018-08-16T19:31:32.218Z,9.70
2018-08-16T19:36:36.031Z,9.60
2018-08-16T19:41:40.165Z,11.67
2018-08-16T19:46:43.994Z,8.57
2018-08-16T19:51:48.162Z,8.70
2018-08-16T19:56:52.201Z,9.37
2018-08-16T20:01:56.290Z,9.23
2018-08-16T20:07:00.368Z,10.87
2018-08-16T20:12:07.389Z,9.23
2018-08-16T20:17:11.423Z,11.33
2018-08-16T20:22:18.861Z,10.67
2018-08-16T20:27:22.923Z,9.73
2018-08-16T20:32:26.857Z,10.03
2018-08-16T20:37:30.665Z,10.47
2018-08-16T20:42:34.870Z,10.57
2018-08-16T20:47:38.955Z,10.13
2018-08-16T20:52:42.922Z,12.90
2018-08-16T20:57:46.990Z,10.47
2018-08-16T21:02:50.807Z,10.53
2018-08-16T21:07:54.894Z,11.20
2018-08-16T21:12:59.162Z,10.50
2018-08-16T21:18:02.975Z,10.50
2018-08-16T21:23:07.546Z,9.77
2018-08-16T21:28:11.342Z,11.77
2018-08-16T21:33:15.390Z,11.07
2018-08-16T21:38:19.249Z,10.70
2018-08-16T21:43:23.406Z,10.23
2018-08-16T21:48:27.460Z,11.78
2018-08-16T21:53:31.535Z,10.82
2018-08-16T21:58:35.742Z,10.77
2018-08-16T22:03:39.538Z,11.17
2018-08-16T22:08:51.822Z,12.67
2018-08-16T22:13:55.889Z,11.17
2018-08-16T22:19:00.041Z,11.77
2018-08-16T22:24:04.187Z,12.60
2018-08-16T22:29:08.222Z,11.37
2018-08-16T22:34:12.058Z,11.33
2018-08-16T22:39:15.866Z,11.67
2018-08-16T22:44:19.709Z,11.77
2018-08-16T22:49:23.715Z,10.97
2018-08-16T22:54:27.818Z,10.70
2018-08-16T22:59:31.614Z,11.27
2018-08-16T23:04:35.672Z,12.17
2018-08-16T23:09:39.707Z,10.95
2018-08-16T23:14:43.517Z,12.00
2018-08-16T23:19:47.693Z,11.17
2018-08-16T23:24:51.735Z,13.83
2018-08-16T23:29:55.883Z,12.87
2018-08-16T23:34:59.987Z,12.17
2018-08-16T23:40:04.677Z,13.90
2018-08-16T23:45:09.954Z,12.00
2018-08-16T23:50:13.978Z,12.20
2018-08-16T23:55:17.825Z,12.67
